Time;durP1;ratioP1;P1;durP2;ratioP2;P2;SDS_P1;SDS_P2;PMS_P1;PMS_P2;Temp;Humidity;BMP_temperature;BMP_pressure;BME280_temperature;BME280_humidity;BME280_pressure;Samples;Min_cycle;Max_cycle;Signal;HPM_P1;HPM_P2
2022/07/08 00:02:01;;;;;;;23.77;3.53;;;;;;;-144.47;57.98;53330.81;4985756;28;20112;-66
2022/07/08 00:04:26;;;;;;;36.17;4.35;;;;;;;-144.47;58.10;53340.75;4975779;28;20037;-64
2022/07/08 00:06:52;;;;;;;21.00;3.60;;;;;;;-144.47;57.99;53293.06;4972637;28;20030;-66
2022/07/08 00:09:18;;;;;;;23.33;3.40;;;;;;;-144.47;57.96;53330.81;4972795;28;20110;-65
2022/07/08 00:11:43;;;;;;;22.38;3.28;;;;;;;-144.47;58.20;53370.53;4965080;28;20077;-63
2022/07/08 00:14:10;;;;;;;24.75;3.58;;;;;;;-144.47;57.90;53316.91;4972114;28;20534;-67
2022/07/08 00:16:40;;;;;;;18.40;3.65;;;;;;;-144.47;58.07;53291.09;4971602;28;20090;-65
2022/07/08 00:19:14;;;;;;;33.20;4.55;;;;;;;-144.47;58.25;53318.91;4989894;28;20046;-66
2022/07/08 00:21:43;;;;;;;22.15;3.30;;;;;;;-144.47;58.21;53324.84;4980689;28;20041;-67
2022/07/08 00:24:10;;;;;;;25.75;4.70;;;;;;;-144.47;58.23;53318.91;4985503;28;20443;-66
2022/07/08 00:26:35;;;;;;;33.65;3.17;;;;;;;-144.47;58.09;53342.72;4983644;28;20363;-64
2022/07/08 00:29:00;;;;;;;31.60;3.40;;;;;;;-144.47;58.35;53299.03;4973259;28;20022;-67
2022/07/08 00:31:25;;;;;;;33.08;4.22;;;;;;;-144.47;58.47;53326.84;4972221;28;20030;-65
2022/07/08 00:33:51;;;;;;;21.65;3.30;;;;;;;-144.47;58.50;53330.81;4976255;28;20033;-68
2022/07/08 00:36:16;;;;;;;27.42;3.75;;;;;;;-144.47;58.71;53312.94;4976893;28;20030;-66
2022/07/08 00:38:41;;;;;;;22.80;3.35;;;;;;;-144.47;58.81;53297.03;4967959;28;20137;-68
2022/07/08 00:41:07;;;;;;;27.40;3.75;;;;;;;-144.47;58.78;53358.63;4971989;28;20046;-68
2022/07/08 00:43:40;;;;;;;32.97;6.25;;;;;;;-144.47;58.90;53340.75;4972311;28;20081;-67
2022/07/08 00:46:07;;;;;;;21.30;2.83;;;;;;;-144.47;59.14;53340.75;4965098;28;20081;-65
2022/07/08 00:48:33;;;;;;;21.73;3.00;;;;;;;-144.47;59.08;53350.69;4965168;28;20392;-67
2022/07/08 00:51:02;;;;;;;32.22;3.55;;;;;;;-144.47;59.08;53338.75;4987616;28;20034;-66
2022/07/08 00:53:29;;;;;;;22.65;3.53;;;;;;;-144.47;59.15;53332.81;4972044;28;20104;-66
2022/07/08 00:55:56;;;;;;;39.97;4.72;;;;;;;-144.47;59.19;53318.91;4978128;28;20029;-67
2022/07/08 00:58:22;;;;;;;23.05;3.00;;;;;;;-144.47;59.35;53336.78;4990876;28;20030;-69
2022/07/08 01:00:48;;;;;;;17.45;3.40;;;;;;;-144.47;59.35;53342.72;4965117;28;20528;-67
2022/07/08 01:03:14;;;;;;;24.08;4.03;;;;;;;-144.47;59.46;53320.88;4990196;28;20023;-65
2022/07/08 01:05:39;;;;;;;23.77;3.80;;;;;;;-144.47;59.55;53314.91;5008917;23;20051;-65
2022/07/08 01:08:05;;;;;;;19.73;3.50;;;;;;;-144.47;59.60;53320.88;5001118;28;20153;-65
2022/07/08 01:10:31;;;;;;;26.52;3.58;;;;;;;-144.47;59.71;53326.84;4986394;28;20054;-65
2022/07/08 01:12:57;;;;;;;31.85;3.67;;;;;;;-144.47;59.70;53330.81;4999528;28;20029;-63
2022/07/08 01:15:23;;;;;;;32.50;4.65;;;;;;;-144.47;60.04;53320.88;4979584;28;20022;-65
2022/07/08 01:17:49;;;;;;;21.27;3.42;;;;;;;-144.47;59.80;53350.69;4979263;28;20513;-61
2022/07/08 01:20:15;;;;;;;26.30;3.17;;;;;;;-144.47;60.00;53336.78;4999414;28;20028;-63
2022/07/08 01:22:40;;;;;;;26.88;4.32;;;;;;;-144.47;60.23;53332.81;4983103;28;20026;-64
2022/07/08 01:25:06;;;;;;;22.00;3.80;;;;;;;-144.47;60.27;53297.03;4977956;28;20031;-63
2022/07/08 01:27:33;;;;;;;26.70;4.65;;;;;;;-144.47;60.15;53396.38;4984371;28;20026;-64
2022/07/08 01:29:58;;;;;;;22.30;3.58;;;;;;;-144.47;60.26;53344.72;4999758;28;20028;-63
2022/07/08 01:32:33;;;;;;;32.30;4.15;;;;;;;-144.47;60.32;53324.84;4998538;28;20031;-65
2022/07/08 01:34:58;;;;;;;21.98;4.38;;;;;;;-144.47;60.27;53301.03;4999631;28;20034;-62
2022/07/08 01:37:23;;;;;;;32.45;4.43;;;;;;;-144.47;60.47;53328.81;4994047;28;20382;-66
2022/07/08 01:39:49;;;;;;;31.27;4.45;;;;;;;-144.47;60.32;53350.69;4988952;28;20547;-64
2022/07/08 01:42:14;;;;;;;35.92;4.70;;;;;;;-144.47;60.39;53279.16;5003805;28;20029;-64
2022/07/08 01:44:40;;;;;;;31.70;4.78;;;;;;;-144.47;60.39;53346.72;4981155;28;20376;-65
2022/07/08 01:47:05;;;;;;;30.38;5.63;;;;;;;-144.47;60.68;53332.81;4993039;28;20073;-61
2022/07/08 01:49:30;;;;;;;30.90;4.38;;;;;;;-144.47;60.69;53314.91;4995966;28;20027;-64
2022/07/08 01:51:56;;;;;;;36.33;5.20;;;;;;;-144.47;60.61;53348.69;4994536;28;20076;-64
2022/07/08 01:54:21;;;;;;;33.55;5.25;;;;;;;-144.47;60.74;53332.81;4987434;28;20037;-65
2022/07/08 01:56:46;;;;;;;41.92;4.75;;;;;;;-144.47;60.68;53320.88;4983482;28;20022;-65
2022/07/08 01:59:12;;;;;;;27.75;4.35;;;;;;;-144.47;60.81;53291.09;4987922;28;20717;-65
2022/07/08 02:01:37;;;;;;;40.38;5.00;;;;;;;-144.47;60.80;53318.91;5009830;28;20026;-61
2022/07/08 02:04:02;;;;;;;25.73;4.57;;;;;;;-144.47;60.93;53312.94;4992257;28;20030;-64
2022/07/08 02:06:28;;;;;;;46.08;5.65;;;;;;;-144.47;60.92;53340.75;5004112;28;20025;-64
2022/07/08 02:08:54;;;;;;;28.80;4.57;;;;;;;-144.47;61.17;53340.75;4998083;28;20022;-65
2022/07/08 02:14:03;;;;;;;26.23;3.92;;;;;;;-144.47;61.08;53374.50;4992842;28;20044;-65
2022/07/08 02:16:29;;;;;;;28.73;3.70;;;;;;;-144.47;60.95;53334.78;4998924;28;20049;-62
2022/07/08 02:18:54;;;;;;;30.40;4.90;;;;;;;-144.47;61.17;53344.72;4991684;28;20110;-65
2022/07/08 02:21:19;;;;;;;29.25;4.88;;;;;;;-144.47;61.42;53322.88;5002675;28;20034;-65
2022/07/08 02:23:45;;;;;;;39.88;5.57;;;;;;;-144.47;61.12;53344.72;4984010;28;20508;-65
2022/07/08 02:26:10;;;;;;;30.40;4.65;;;;;;;-144.47;61.22;53366.56;4974115;28;20077;-65
2022/07/08 02:28:36;;;;;;;18.02;4.55;;;;;;;-144.47;61.11;53342.72;4991120;28;20038;-59
2022/07/08 02:31:01;;;;;;;33.85;4.80;;;;;;;-144.47;61.27;53360.63;5006523;28;20030;-65
2022/07/08 02:33:27;;;;;;;36.97;4.72;;;;;;;-144.47;61.31;53320.88;5002444;28;20097;-65
2022/07/08 02:35:52;;;;;;;38.92;4.55;;;;;;;-144.47;61.36;53344.72;5003493;28;20026;-65
2022/07/08 02:38:17;;;;;;;35.90;4.95;;;;;;;-144.47;61.39;53332.81;4990309;28;20659;-62
2022/07/08 02:40:43;;;;;;;34.03;5.05;;;;;;;-144.47;61.38;53340.75;5002351;28;20621;-64
2022/07/08 02:43:10;;;;;;;27.73;4.60;;;;;;;-144.47;61.49;53348.69;4980511;28;20026;-62
2022/07/08 02:45:37;;;;;;;31.85;4.88;;;;;;;-144.47;61.53;53324.84;4985271;28;20030;-63
2022/07/08 02:48:02;;;;;;;24.83;4.22;;;;;;;-144.47;61.54;53322.88;4977721;28;20045;-66
2022/07/08 02:50:28;;;;;;;36.45;6.72;;;;;;;-144.47;61.54;53348.69;4984166;28;20393;-63
2022/07/08 02:52:53;;;;;;;34.05;4.90;;;;;;;-144.47;61.49;53316.91;4978405;28;20043;-64
2022/07/08 02:55:18;;;;;;;31.70;5.07;;;;;;;-144.47;61.55;53344.72;5005759;28;20029;-64
2022/07/08 02:57:43;;;;;;;29.38;5.63;;;;;;;-144.47;61.64;53342.72;4993365;28;20041;-65
2022/07/08 03:00:09;;;;;;;47.90;5.78;;;;;;;-144.47;61.66;53350.69;4997444;28;20037;-65
2022/07/08 03:02:34;;;;;;;43.92;5.20;;;;;;;-144.47;61.52;53352.66;4988192;28;20129;-61
2022/07/08 03:05:00;;;;;;;38.47;6.20;;;;;;;-144.47;61.64;53342.72;4994624;28;20046;-66
2022/07/08 03:07:26;;;;;;;44.78;6.05;;;;;;;-144.47;61.70;53356.63;4989996;28;20030;-66
2022/07/08 03:09:51;;;;;;;33.22;4.40;;;;;;;-144.47;61.81;53312.94;4975753;28;20042;-64
2022/07/08 03:12:16;;;;;;;34.63;4.50;;;;;;;-144.47;61.77;53350.69;4985483;28;20030;-62
2022/07/08 03:14:42;;;;;;;30.10;4.25;;;;;;;-144.47;61.95;53350.69;5005625;28;20033;-65
2022/07/08 03:17:07;;;;;;;37.83;4.70;;;;;;;-144.47;61.86;53358.63;4986328;28;20030;-65
2022/07/08 03:19:33;;;;;;;36.05;4.13;;;;;;;-144.47;61.91;53376.50;4976914;28;20039;-64
2022/07/08 03:21:59;;;;;;;34.08;5.07;;;;;;;-144.47;62.02;53352.66;4979986;28;20030;-65
2022/07/08 03:24:24;;;;;;;42.13;4.40;;;;;;;-144.47;62.13;53348.69;4980455;28;20026;-62
2022/07/08 03:26:50;;;;;;;37.80;5.30;;;;;;;-144.47;62.18;53322.88;4997392;28;20079;-65
2022/07/08 03:29:15;;;;;;;39.20;4.57;;;;;;;-144.47;62.08;53342.72;4993756;28;20161;-65
2022/07/08 03:31:41;;;;;;;29.13;5.22;;;;;;;-144.47;62.34;53374.50;4978970;28;20088;-67
2022/07/08 03:34:06;;;;;;;36.45;6.03;;;;;;;-144.47;62.50;53332.81;4989401;28;20542;-61
2022/07/08 03:36:31;;;;;;;28.05;4.82;;;;;;;-144.47;62.48;53332.81;4991088;28;20022;-65
2022/07/08 03:38:57;;;;;;;27.67;4.13;;;;;;;-144.47;62.64;53348.69;4990229;28;20392;-65
2022/07/08 03:41:25;;;;;;;24.73;4.03;;;;;;;-144.47;62.72;53356.63;4994162;28;20503;-65
2022/07/08 03:43:52;;;;;;;38.03;5.03;;;;;;;-144.47;62.94;53358.63;4971693;28;20384;-66
2022/07/08 03:46:18;;;;;;;31.30;6.00;;;;;;;-144.47;63.11;53320.88;4989640;28;20026;-66
2022/07/08 03:48:43;;;;;;;26.83;4.60;;;;;;;-144.47;63.36;53380.47;4989805;28;20029;-64
2022/07/08 03:51:09;;;;;;;33.63;4.85;;;;;;;-144.47;63.81;53336.78;4989986;28;20034;-66
2022/07/08 03:53:34;;;;;;;27.05;5.13;;;;;;;-144.47;63.80;53410.28;4992818;28;20029;-64
2022/07/08 03:56:00;;;;;;;32.30;5.85;;;;;;;-144.47;64.04;53364.59;4997632;28;20025;-65
2022/07/08 03:58:25;;;;;;;40.20;4.95;;;;;;;-144.47;64.55;53400.34;4981721;28;20124;-61
2022/07/08 04:00:51;;;;;;;30.23;4.28;;;;;;;-144.47;64.56;53374.50;4997280;28;20128;-64
2022/07/08 04:03:17;;;;;;;39.75;4.88;;;;;;;-144.47;64.61;53330.81;4982720;28;20035;-64
2022/07/08 04:05:42;;;;;;;32.22;4.35;;;;;;;-144.47;65.01;53356.63;4992955;28;20094;-64
2022/07/08 04:08:08;;;;;;;30.13;5.22;;;;;;;-144.47;65.23;53354.66;4975808;28;20034;-64
2022/07/08 04:10:33;;;;;;;29.20;4.28;;;;;;;-144.47;65.34;53392.41;5004208;28;20019;-63
2022/07/08 04:12:59;;;;;;;25.13;5.47;;;;;;;-144.47;65.41;53378.50;4976968;28;20026;-66
2022/07/08 04:15:25;;;;;;;42.95;5.10;;;;;;;-144.47;65.74;53348.69;4984845;28;20500;-63
2022/07/08 04:17:52;;;;;;;38.78;5.10;;;;;;;-144.47;66.01;53364.59;5002428;28;20034;-66
2022/07/08 04:20:17;;;;;;;27.58;4.22;;;;;;;-144.47;66.21;53348.69;5002189;28;20030;-63
2022/07/08 04:22:43;;;;;;;33.67;5.80;;;;;;;-144.47;66.32;53356.63;4999658;28;20034;-63
2022/07/08 04:25:08;;;;;;;36.38;6.20;;;;;;;-144.47;66.35;53352.66;4977008;28;20109;-66
2022/07/08 04:27:34;;;;;;;51.55;7.22;;;;;;;-144.47;66.44;53354.66;4988490;28;20027;-66
2022/07/08 04:30:00;;;;;;;32.83;5.07;;;;;;;-144.47;66.35;53384.44;4977001;28;20052;-65
2022/07/08 04:32:25;;;;;;;39.83;6.22;;;;;;;-144.47;66.34;53362.59;4990098;28;20029;-63
2022/07/08 04:34:51;;;;;;;37.15;6.53;;;;;;;-144.47;66.31;53344.72;5001871;28;20052;-65
2022/07/08 04:37:17;;;;;;;36.20;5.07;;;;;;;-144.47;66.26;53354.66;4985443;28;20022;-64
2022/07/08 04:39:43;;;;;;;32.60;5.07;;;;;;;-144.47;65.99;53408.28;4989804;28;20034;-65
2022/07/08 04:42:08;;;;;;;39.25;5.60;;;;;;;-144.47;65.71;53366.56;5005145;28;20121;-66
2022/07/08 04:44:34;;;;;;;34.47;4.95;;;;;;;-144.47;65.91;53392.41;4986115;28;20031;-62
2022/07/08 04:46:59;;;;;;;29.52;4.65;;;;;;;-144.47;65.84;53346.72;4979173;28;20088;-65
2022/07/08 04:49:25;;;;;;;26.80;5.00;;;;;;;-144.47;65.98;53360.63;4988281;28;20029;-63
2022/07/08 04:51:50;;;;;;;31.85;5.25;;;;;;;-144.47;65.57;53370.53;5011711;28;20022;-65
2022/07/08 04:54:16;;;;;;;35.70;5.53;;;;;;;-144.47;65.44;53364.59;4974020;28;20031;-65
2022/07/08 04:56:41;;;;;;;37.33;5.35;;;;;;;-144.47;65.68;53352.66;5001047;28;20022;-60
2022/07/08 04:59:08;;;;;;;41.45;5.65;;;;;;;-144.47;65.57;53332.81;5004908;28;20472;-64
2022/07/08 05:01:33;;;;;;;29.30;4.95;;;;;;;-144.47;65.69;53378.50;4991937;28;20030;-63
2022/07/08 05:03:59;;;;;;;41.22;6.55;;;;;;;-144.47;65.18;53380.47;4998628;28;20044;-65
2022/07/08 05:06:24;;;;;;;32.63;5.00;;;;;;;-144.47;65.63;53380.47;4994178;28;20038;-64
2022/07/08 05:08:49;;;;;;;44.17;5.30;;;;;;;-144.47;65.29;53322.88;4973337;28;20029;-65
2022/07/08 05:11:15;;;;;;;31.73;4.60;;;;;;;-144.47;65.50;53378.50;4985389;28;20033;-64
2022/07/08 05:13:40;;;;;;;31.40;7.18;;;;;;;-144.47;65.34;53356.63;4992127;28;20134;-66
2022/07/08 05:16:05;;;;;;;48.38;5.10;;;;;;;-144.47;65.23;53374.50;4997172;28;20100;-66
2022/07/08 05:18:31;;;;;;;39.47;5.10;;;;;;;-144.47;65.21;53394.38;4988754;28;20037;-64
2022/07/08 05:20:56;;;;;;;39.95;4.88;;;;;;;-144.47;65.24;53372.53;4988029;28;20041;-65
2022/07/08 05:23:21;;;;;;;32.05;4.90;;;;;;;-144.47;64.75;53360.63;4976931;28;20110;-68
2022/07/08 05:25:47;;;;;;;26.33;4.47;;;;;;;-144.47;64.99;53376.50;4994531;28;20590;-67
2022/07/08 05:28:12;;;;;;;26.23;4.05;;;;;;;-144.47;64.65;53348.69;5011721;28;20040;-64
2022/07/08 05:30:38;;;;;;;37.55;4.60;;;;;;;-144.47;64.66;53356.63;4985610;28;20079;-67
2022/07/08 05:33:03;;;;;;;26.50;5.70;;;;;;;-144.47;64.24;53356.63;4992142;28;20050;-65
2022/07/08 05:35:28;;;;;;;29.80;4.53;;;;;;;-144.47;63.89;53360.63;4975318;28;20064;-66
2022/07/08 05:37:54;;;;;;;43.20;4.13;;;;;;;-144.47;63.56;53360.63;5001543;28;20026;-65
2022/07/08 05:40:19;;;;;;;25.38;5.10;;;;;;;-144.47;63.40;53398.34;4976253;28;20038;-62
2022/07/08 05:42:45;;;;;;;35.58;5.10;;;;;;;-144.47;63.50;53348.69;4981923;28;20034;-67
2022/07/08 05:45:11;;;;;;;57.35;6.68;;;;;;;-144.47;63.45;53360.63;4994205;28;20054;-64
2022/07/08 05:47:37;;;;;;;31.05;4.78;;;;;;;-144.47;63.00;53398.34;4998424;28;20026;-66
2022/07/08 05:50:03;;;;;;;25.65;3.85;;;;;;;-144.47;62.74;53386.44;4979816;28;20069;-65
2022/07/08 05:52:29;;;;;;;45.78;7.57;;;;;;;-144.47;62.93;53348.69;5000083;28;20025;-65
2022/07/08 05:54:54;;;;;;;32.33;3.95;;;;;;;-144.47;62.62;53352.66;5006158;28;20022;-65
2022/07/08 05:57:20;;;;;;;22.20;4.18;;;;;;;-144.47;62.47;53354.66;4993415;28;20102;-65
2022/07/08 05:59:46;;;;;;;24.67;4.07;;;;;;;-144.47;62.51;53358.63;4974366;28;20049;-66
2022/07/08 06:02:11;;;;;;;27.48;4.20;;;;;;;-144.47;62.04;53352.66;4972163;28;20023;-64
2022/07/08 06:04:37;;;;;;;31.00;4.68;;;;;;;-144.47;61.89;53332.81;4976690;28;20125;-65
2022/07/08 06:07:03;;;;;;;30.90;3.20;;;;;;;-144.47;61.60;53338.75;4975475;28;20035;-65
2022/07/08 06:09:28;;;;;;;29.38;4.00;;;;;;;-144.47;61.40;53314.91;4978624;28;20669;-65
2022/07/08 06:11:54;;;;;;;31.23;5.88;;;;;;;-144.47;61.47;53380.47;4973119;28;20500;-68
2022/07/08 06:14:19;;;;;;;27.63;5.05;;;;;;;-144.47;61.02;53414.25;4973124;28;20035;-65
2022/07/08 06:16:48;;;;;;;36.42;3.95;;;;;;;-144.47;60.99;53340.75;4973469;28;20041;-65
2022/07/08 06:19:14;;;;;;;43.20;4.75;;;;;;;-144.47;60.99;53364.59;4973141;28;20093;-66
2022/07/08 06:21:39;;;;;;;29.95;3.95;;;;;;;-144.47;60.83;53364.59;4975035;28;20080;-65
2022/07/08 06:24:05;;;;;;;26.80;3.83;;;;;;;-144.47;60.60;53326.84;4974933;28;20442;-66
2022/07/08 06:26:30;;;;;;;22.63;3.75;;;;;;;-144.47;59.87;53320.88;4973155;28;20094;-63
2022/07/08 06:28:56;;;;;;;26.88;3.33;;;;;;;-144.47;60.16;53334.78;4976345;28;20038;-67
2022/07/08 06:31:21;;;;;;;31.77;3.92;;;;;;;-144.47;59.76;53348.69;4978561;28;20086;-64
2022/07/08 06:33:46;;;;;;;30.10;4.68;;;;;;;-144.47;59.80;53352.66;4976357;28;21242;-64
2022/07/08 06:36:12;;;;;;;30.65;3.60;;;;;;;-144.47;59.40;53360.63;4976882;28;20607;-66
2022/07/08 06:38:37;;;;;;;44.63;3.95;;;;;;;-144.47;59.25;53358.63;4977339;28;20488;-67
2022/07/08 06:41:03;;;;;;;30.15;4.07;;;;;;;-144.47;58.71;53336.78;4973322;28;20054;-66
2022/07/08 06:43:28;;;;;;;28.05;4.05;;;;;;;-144.47;58.64;53354.66;4977243;28;20050;-65
2022/07/08 06:45:53;;;;;;;29.33;3.83;;;;;;;-144.47;58.14;53350.69;4976577;28;20022;-67
2022/07/08 06:48:19;;;;;;;23.35;3.25;;;;;;;-144.47;57.85;53352.66;4974703;28;20033;-66
2022/07/08 06:50:44;;;;;;;30.02;3.95;;;;;;;-144.47;57.86;53320.88;5009459;28;20411;-66
2022/07/08 06:53:10;;;;;;;24.85;3.60;;;;;;;-144.47;57.75;53372.53;5009185;28;20014;-65
2022/07/08 06:55:35;;;;;;;29.40;3.30;;;;;;;-144.47;57.52;53360.63;4971774;28;20432;-67
2022/07/08 06:58:01;;;;;;;20.90;3.03;;;;;;;-144.47;57.24;53352.66;4997342;28;20045;-67
2022/07/08 07:00:27;;;;;;;18.23;2.72;;;;;;;-144.47;56.79;53348.69;4987317;28;20034;-65
2022/07/08 07:02:53;;;;;;;24.40;3.33;;;;;;;-144.47;56.34;53340.75;4987171;28;20526;-66
2022/07/08 07:05:19;;;;;;;23.45;3.38;;;;;;;-144.47;55.92;53328.81;4988365;28;20037;-66
2022/07/08 07:07:45;;;;;;;31.02;3.33;;;;;;;-144.47;56.00;53318.91;4991003;28;20018;-68
2022/07/08 07:10:11;;;;;;;26.50;3.22;;;;;;;-144.47;55.70;53334.78;4983733;28;20051;-67
2022/07/08 07:15:22;;;;;;;28.00;3.67;;;;;;;-144.47;55.30;53344.72;4644456;26;20058;-88
2022/07/08 07:17:48;;;;;;;26.35;3.17;;;;;;;-144.47;54.60;53340.75;4989757;28;20085;-88
2022/07/08 07:20:16;;;;;;;20.55;3.65;;;;;;;-144.47;55.15;53314.91;4999588;28;20218;-89
2022/07/08 07:22:46;;;;;;;17.35;3.10;;;;;;;-144.47;54.69;53336.78;4989752;28;20200;-90
2022/07/08 07:25:20;;;;;;;32.55;4.00;;;;;;;-144.47;54.30;53305.00;4987944;28;20026;-88
2022/07/08 07:27:48;;;;;;;34.42;4.40;;;;;;;-144.47;54.11;53318.91;4994861;28;20026;-90
2022/07/08 07:30:21;;;;;;;33.95;3.80;;;;;;;-144.47;53.59;53301.03;4996164;28;20029;-91
2022/07/08 07:32:50;;;;;;;26.13;3.13;;;;;;;-144.47;53.61;53312.94;4982778;28;20031;-88
2022/07/08 07:35:23;;;;;;;38.65;3.90;;;;;;;-144.47;53.98;53312.94;4996607;28;20109;-89
2022/07/08 07:37:56;;;;;;;20.25;3.20;;;;;;;-144.47;53.99;53348.69;4995112;28;20042;-90
2022/07/08 07:40:23;;;;;;;23.00;2.88;;;;;;;-144.47;53.96;53340.75;4997107;28;20022;-88
2022/07/08 07:42:58;;;;;;;28.75;3.33;;;;;;;-144.47;54.03;53312.94;4979108;28;20030;-88
2022/07/08 07:45:24;;;;;;;28.63;3.08;;;;;;;-144.47;54.15;53291.09;4981993;28;20023;-89
2022/07/08 07:47:57;;;;;;;35.45;3.55;;;;;;;-144.47;54.85;53310.94;4997486;28;20030;-89
2022/07/08 07:50:26;;;;;;;38.42;4.00;;;;;;;-144.47;54.42;53348.69;4990785;28;20022;-90
2022/07/08 07:52:53;;;;;;;23.80;3.22;;;;;;;-144.47;54.37;53306.97;4975732;28;20085;-89
2022/07/08 07:56:15;;;;;;;24.08;3.55;;;;;;;-144.47;54.56;53332.81;4984521;28;20090;-90
2022/07/08 07:58:48;;;;;;;27.00;3.00;;;;;;;-144.47;53.88;53328.81;4991957;28;20212;-90
2022/07/08 08:01:19;;;;;;;34.45;3.22;;;;;;;-144.47;54.01;53338.75;4996562;28;20159;-89
2022/07/08 08:10:16;;;;;;;17.60;2.97;;;;;;;-144.47;53.27;53326.84;4978793;28;20034;-87
2022/07/08 08:13:10;;;;;;;;;;;;;;;;;;;;;
2022/07/08 08:15:53;;;;;;;26.38;6.18;;;;;;;-144.47;53.31;53291.09;4985202;28;20065;-90
2022/07/08 08:18:46;;;;;;;29.67;4.95;;;;;;;-144.47;53.74;53326.84;4980058;28;20102;-90
2022/07/08 08:21:24;;;;;;;31.05;2.70;;;;;;;-144.47;53.53;53324.84;4983619;28;20533;-90
2022/07/08 08:26:38;;;;;;;19.35;4.13;;;;;;;-144.47;53.27;53334.78;4991217;28;20122;-92
2022/07/08 08:29:04;;;;;;;32.63;3.03;;;;;;;-144.47;53.39;53312.94;4996365;28;20042;-89
2022/07/08 08:31:43;;;;;;;26.77;2.92;;;;;;;-144.47;53.11;53332.81;4981774;28;20034;-91
2022/07/08 08:34:34;;;;;;;;;;;;;;;;;;;;;
2022/07/08 08:37:00;;;;;;;18.17;3.03;;;;;;;-144.47;52.37;53348.69;5004939;23;20045;-63
2022/07/08 08:39:25;;;;;;;28.23;3.47;;;;;;;-144.47;52.44;53362.59;4980757;28;20062;-66
2022/07/08 08:41:50;;;;;;;22.33;3.20;;;;;;;-144.47;52.56;53368.56;5004684;28;20025;-67
2022/07/08 08:44:16;;;;;;;25.70;4.15;;;;;;;-144.47;52.54;53318.91;4985720;28;20058;-64
2022/07/08 08:46:44;;;;;;;26.17;3.50;;;;;;;-144.47;52.54;53314.91;4980270;28;20049;-63
2022/07/08 08:49:10;;;;;;;19.83;3.10;;;;;;;-144.47;51.96;53320.88;4974023;28;20484;-64
2022/07/08 08:51:39;;;;;;;29.67;3.38;;;;;;;-144.47;51.74;53322.88;4973798;28;20527;-63
2022/07/08 08:54:06;;;;;;;31.40;4.40;;;;;;;-144.47;51.67;53320.88;4985578;28;20074;-64
2022/07/08 08:56:32;;;;;;;19.52;2.85;;;;;;;-144.47;51.78;53318.91;4986841;28;20106;-64
2022/07/08 08:58:59;;;;;;;25.27;3.30;;;;;;;-144.47;51.99;53312.94;5009625;28;20522;-64
2022/07/08 09:01:24;;;;;;;18.85;2.45;;;;;;;-144.47;51.78;53330.81;4977482;28;20116;-65
2022/07/08 09:03:51;;;;;;;21.08;3.15;;;;;;;-144.47;51.29;53312.94;4976314;28;20073;-65
2022/07/08 09:06:16;;;;;;;17.65;3.28;;;;;;;-144.47;50.85;53326.84;4978343;28;20030;-64
2022/07/08 09:08:42;;;;;;;19.77;3.17;;;;;;;-144.47;50.13;53297.03;4972778;28;20022;-65
2022/07/08 09:11:07;;;;;;;20.20;2.70;;;;;;;-144.47;50.30;53305.00;4977028;28;20109;-65
2022/07/08 09:13:33;;;;;;;22.85;3.33;;;;;;;-144.47;50.19;53293.06;4980834;28;20050;-64
2022/07/08 09:15:59;;;;;;;13.93;2.53;;;;;;;-144.47;50.61;53354.66;4976858;28;20030;-65
2022/07/08 09:18:35;;;;;;;16.25;2.60;;;;;;;-144.47;50.47;53324.84;4974428;28;20038;-64
2022/07/08 09:21:01;;;;;;;12.35;1.98;;;;;;;-144.47;50.31;53314.91;4975693;28;20034;-65
2022/07/08 09:23:37;;;;;;;17.17;3.22;;;;;;;-144.47;49.78;53352.66;4977109;28;20053;-66
2022/07/08 09:26:05;;;;;;;20.42;3.17;;;;;;;-144.47;49.67;53301.03;4980679;28;20344;-63
2022/07/08 09:28:37;;;;;;;25.30;3.38;;;;;;;-144.47;49.41;53326.84;4990015;28;20084;-63
2022/07/08 09:31:07;;;;;;;19.00;2.20;;;;;;;-144.47;49.08;53295.06;4973834;28;20467;-65
2022/07/08 09:33:33;;;;;;;21.17;2.83;;;;;;;-144.47;48.93;53320.88;4997112;28;20041;-65
2022/07/08 09:36:00;;;;;;;17.98;2.28;;;;;;;-144.47;49.08;53316.91;5011478;28;20101;-67
2022/07/08 09:38:27;;;;;;;12.25;2.20;;;;;;;-144.47;48.88;53310.94;4998165;28;20153;-61
2022/07/08 09:41:02;;;;;;;23.02;3.28;;;;;;;-144.47;48.73;53352.66;4991512;28;20034;-64
2022/07/08 09:43:28;;;;;;;19.90;2.40;;;;;;;-144.47;48.54;53297.03;5002994;28;20058;-65
2022/07/08 09:45:53;;;;;;;22.20;3.55;;;;;;;-144.47;48.07;53287.13;5003524;28;20038;-65
2022/07/08 09:48:19;;;;;;;15.23;2.17;;;;;;;-144.47;47.24;53289.09;4978743;28;20190;-64
2022/07/08 09:50:47;;;;;;;10.07;1.92;;;;;;;-144.47;47.34;53289.09;4987513;28;20027;-62
2022/07/08 09:53:20;;;;;;;13.00;2.03;;;;;;;-144.47;47.05;53279.16;4972534;28;20109;-65
2022/07/08 09:55:51;;;;;;;16.67;2.42;;;;;;;-144.47;47.34;53308.97;4989215;28;20053;-62
2022/07/08 09:58:27;;;;;;;15.32;2.00;;;;;;;-144.47;46.97;53318.91;4978548;28;20073;-64
2022/07/08 10:00:54;;;;;;;29.75;2.78;;;;;;;-144.47;46.90;53303.00;4972163;28;20634;-66
2022/07/08 10:03:20;;;;;;;22.52;3.15;;;;;;;-144.47;47.29;53308.97;4989150;28;20054;-63
2022/07/08 10:05:46;;;;;;;13.90;2.22;;;;;;;-144.47;47.31;53261.28;5000596;28;20029;-66
2022/07/08 10:08:12;;;;;;;16.98;2.75;;;;;;;-144.47;47.36;53308.97;4992296;28;20026;-65
2022/07/08 10:10:40;;;;;;;18.33;2.50;;;;;;;-144.47;46.87;53287.13;4986806;28;20030;-63
2022/07/08 10:13:06;;;;;;;16.27;2.60;;;;;;;-144.47;46.54;53275.19;4997022;28;20062;-63
2022/07/08 10:15:34;;;;;;;24.73;2.60;;;;;;;-144.47;46.94;53293.06;4982359;28;20058;-65
2022/07/08 10:18:23;;;;;;;10.35;2.70;;;;;;;-144.47;46.76;53247.38;4995957;28;20033;-65
2022/07/08 10:20:56;;;;;;;17.38;3.20;;;;;;;-144.47;46.82;53279.16;4997563;28;20022;-64
2022/07/08 10:23:28;;;;;;;11.80;4.45;;;;;;;-144.47;46.72;53297.03;5000112;28;20453;-65
2022/07/08 10:25:59;;;;;;;15.40;2.58;;;;;;;-144.47;46.67;53320.88;4986054;28;20030;-66
2022/07/08 10:28:35;;;;;;;14.25;2.67;;;;;;;-144.47;46.75;53318.91;4980346;28;20437;-61
2022/07/08 10:31:00;;;;;;;14.98;3.03;;;;;;;-144.47;46.28;53299.03;5003815;28;20033;-64
2022/07/08 10:33:28;;;;;;;15.23;2.33;;;;;;;-144.47;46.79;53287.13;5001693;28;20058;-66
2022/07/08 10:36:01;;;;;;;9.47;2.40;;;;;;;-144.47;46.60;53308.97;4987220;28;20034;-63
2022/07/08 10:38:41;;;;;;;15.98;2.83;;;;;;;-144.47;46.55;53289.09;4995547;28;20033;-66
2022/07/08 10:41:10;;;;;;;19.60;3.17;;;;;;;-144.47;46.67;53275.19;4971287;28;20026;-64
2022/07/08 10:43:37;;;;;;;15.52;2.83;;;;;;;-144.47;46.64;53303.00;4987024;28;20031;-67
2022/07/08 10:46:15;;;;;;;14.77;2.63;;;;;;;-144.47;47.16;53322.88;4976955;28;20037;-68
2022/07/08 10:48:40;;;;;;;18.25;3.00;;;;;;;-144.47;46.78;53305.00;4991960;28;20084;-63
2022/07/08 10:51:18;;;;;;;15.65;3.42;;;;;;;-144.47;46.49;53297.03;4990564;28;20038;-65
2022/07/08 10:54:01;;;;;;;21.73;2.78;;;;;;;-144.47;46.32;53297.03;4975863;28;20026;-62
2022/07/08 10:56:49;;;;;;;17.40;2.60;;;;;;;-144.47;45.97;53340.75;5002346;28;20116;-67
2022/07/08 10:59:19;;;;;;;13.27;2.22;;;;;;;-144.47;45.47;53289.09;4986990;28;20033;-67
2022/07/08 11:02:06;;;;;;;9.75;2.10;;;;;;;-144.47;45.27;53281.16;5007781;28;20053;-66
2022/07/08 11:04:43;;;;;;;16.02;2.85;;;;;;;-144.47;45.08;53293.06;4984876;28;20062;-67
2022/07/08 11:07:14;;;;;;;12.90;2.53;;;;;;;-144.47;45.08;53295.06;4991854;28;20030;-67
2022/07/08 11:09:40;;;;;;;13.65;2.55;;;;;;;-144.47;44.21;53297.03;4970960;28;20547;-65
2022/07/08 11:12:07;;;;;;;24.50;3.95;;;;;;;-144.47;44.71;53279.16;4989763;28;20057;-65
2022/07/08 11:14:33;;;;;;;18.23;2.40;;;;;;;-144.47;44.42;53265.25;4980794;28;20492;-61
2022/07/08 11:16:59;;;;;;;9.68;2.38;;;;;;;-144.47;44.71;53267.25;4985427;28;20112;-67
2022/07/08 11:19:31;;;;;;;18.02;2.85;;;;;;;-144.47;44.95;53312.94;5002665;28;20160;-64
2022/07/08 11:22:03;;;;;;;6.50;1.90;;;;;;;-144.47;45.12;53305.00;4981336;28;20164;-65
2022/07/08 11:24:28;;;;;;;20.05;2.65;;;;;;;-144.47;44.39;53247.38;4984185;28;20071;-67
2022/07/08 11:26:54;;;;;;;16.05;2.58;;;;;;;-144.47;44.68;53293.06;4996239;28;20021;-65
2022/07/08 11:29:24;;;;;;;11.20;2.25;;;;;;;-144.47;44.58;53265.25;5005936;28;20514;-66